Time;durP1;ratioP1;P1;durP2;ratioP2;P2;SDS_P1;SDS_P2;PMS_P1;PMS_P2;Temp;Humidity;BMP_temperature;BMP_pressure;BME280_temperature;BME280_humidity;BME280_pressure;Samples;Min_cycle;Max_cycle;Signal;HPM_P1;HPM_P2
2022/08/29 00:01:50;;;;;;;0.30;0.30;;;15.20;67.50;;;;;;6274620;22;20090;-75
2022/08/29 00:04:16;;;;;;;0.57;0.40;;;15.20;67.60;;;;;;6248769;22;20011;-74
2022/08/29 00:06:41;;;;;;;0.80;0.35;;;15.20;67.70;;;;;;6275427;22;20096;-75
2022/08/29 00:09:07;;;;;;;0.35;0.35;;;15.20;67.80;;;;;;6274967;22;20495;-74
2022/08/29 00:11:33;;;;;;;0.30;0.30;;;15.10;67.80;;;;;;6247892;22;20022;-74
2022/08/29 00:13:59;;;;;;;0.30;0.30;;;15.10;67.80;;;;;;6275104;22;20015;-75
2022/08/29 00:16:24;;;;;;;0.57;0.20;;;15.10;67.90;;;;;;6275292;22;20091;-75
2022/08/29 00:18:50;;;;;;;0.30;0.30;;;15.10;68.00;;;;;;6246191;22;20013;-74
2022/08/29 00:21:16;;;;;;;0.20;0.20;;;15.00;68.10;;;;;;6274918;22;20008;-74
2022/08/29 00:23:44;;;;;;;0.30;0.30;;;15.00;68.20;;;;;;6275014;22;20015;-74
2022/08/29 00:26:10;;;;;;;0.30;0.28;;;14.90;68.20;;;;;;6274791;22;19996;-74
2022/08/29 00:28:36;;;;;;;0.57;0.38;;;14.90;68.30;;;;;;6274781;22;20056;-74
2022/08/29 00:31:02;;;;;;;0.30;0.30;;;14.80;68.40;;;;;;6247959;22;20007;-75
2022/08/29 00:33:28;;;;;;;0.68;0.30;;;14.80;68.50;;;;;;6247694;22;20008;-75
2022/08/29 00:35:54;;;;;;;0.55;0.30;;;14.70;68.60;;;;;;6275294;22;20011;-74
2022/08/29 00:38:20;;;;;;;0.30;0.30;;;14.70;68.70;;;;;;6248639;22;20443;-75
2022/08/29 00:40:52;;;;;;;0.30;0.30;;;14.70;68.80;;;;;;6247282;22;20057;-75
2022/08/29 00:43:23;;;;;;;0.40;0.40;;;14.60;68.90;;;;;;6274818;22;20004;-75
2022/08/29 00:45:54;;;;;;;;;;;14.60;68.90;;;;;;6275292;22;20012;-75
2022/08/29 00:48:21;;;;;;;0.20;0.20;;;14.60;68.80;;;;;;6275338;22;19939;-75
2022/08/29 00:50:52;;;;;;;0.25;0.25;;;14.60;68.70;;;;;;6274755;22;20011;-75
2022/08/29 00:53:27;;;;;;;0.25;0.20;;;14.60;68.70;;;;;;6274831;22;20007;-74
2022/08/29 00:55:53;;;;;;;0.20;0.20;;;14.60;68.70;;;;;;6274920;22;20035;-75
2022/08/29 00:58:30;;;;;;;0.22;0.22;;;14.60;68.60;;;;;;6248012;22;20089;-74
2022/08/29 01:00:57;;;;;;;0.20;0.20;;;14.60;68.70;;;;;;6271458;22;20011;-75
2022/08/29 01:03:24;;;;;;;0.28;0.20;;;14.60;68.70;;;;;;6274752;22;20314;-74
2022/08/29 01:05:51;;;;;;;0.30;0.30;;;14.60;68.70;;;;;;6274733;22;20428;-75
2022/08/29 01:08:17;;;;;;;0.55;0.30;;;14.50;68.80;;;;;;6274657;22;20082;-74
2022/08/29 01:13:35;;;;;;;0.28;0.25;;;14.50;68.90;;;;;;6274754;22;20084;-74
2022/08/29 01:16:02;;;;;;;0.30;0.30;;;14.40;68.90;;;;;;6275170;22;20336;-74
2022/08/29 01:18:31;;;;;;;0.35;0.22;;;14.60;69.10;;;;;;6274578;22;20083;-75
2022/08/29 01:21:23;;;;;;;0.30;0.30;;;14.40;69.10;;;;;;6247425;22;19999;-75
2022/08/29 01:24:23;;;;;;;0.20;0.20;;;14.40;69.20;;;;;;6247649;22;20106;-75
2022/08/29 01:26:49;;;;;;;0.20;0.20;;;14.40;69.30;;;;;;6274644;22;20079;-74
2022/08/29 01:29:16;;;;;;;0.30;0.30;;;14.30;69.20;;;;;;6247614;22;20031;-74
2022/08/29 01:31:46;;;;;;;0.20;0.20;;;14.40;69.30;;;;;;6248166;22;20035;-74
2022/08/29 01:34:16;;;;;;;0.38;0.38;;;14.40;69.40;;;;;;6247723;22;20440;-74
2022/08/29 01:36:50;;;;;;;0.30;0.20;;;14.30;69.40;;;;;;6272128;22;20015;-74
2022/08/29 01:39:18;;;;;;;0.40;0.30;;;14.30;69.50;;;;;;6274824;22;20008;-74
2022/08/29 01:41:44;;;;;;;0.47;0.20;;;14.30;69.50;;;;;;6274733;22;20007;-74
2022/08/29 01:44:14;;;;;;;0.30;0.30;;;14.30;69.60;;;;;;6275064;22;20077;-74
2022/08/29 01:46:39;;;;;;;1.02;0.30;;;14.20;69.60;;;;;;6275062;22;20355;-75
2022/08/29 01:49:08;;;;;;;0.20;0.20;;;14.20;69.70;;;;;;6274653;22;20012;-74
2022/08/29 01:51:36;;;;;;;0.57;0.28;;;14.20;69.80;;;;;;6275179;22;20028;-74
2022/08/29 01:54:04;;;;;;;0.10;0.10;;;14.10;69.80;;;;;;6248055;22;20016;-75
2022/08/29 01:56:33;;;;;;;0.20;0.20;;;14.10;69.90;;;;;;6248359;22;20440;-75
2022/08/29 01:59:00;;;;;;;0.22;0.22;;;14.10;70.00;;;;;;6274927;22;20012;-74
2022/08/29 02:01:32;;;;;;;0.30;0.30;;;14.10;70.10;;;;;;6274921;22;20492;-74
2022/08/29 02:03:59;;;;;;;0.30;0.30;;;14.00;70.10;;;;;;6274696;22;20008;-75
2022/08/29 02:06:27;;;;;;;0.20;0.20;;;14.00;70.10;;;;;;6247699;22;20007;-74
2022/08/29 02:08:53;;;;;;;0.43;0.30;;;14.10;70.30;;;;;;6246585;22;20008;-74
2022/08/29 02:11:20;;;;;;;0.55;0.40;;;14.00;70.30;;;;;;6220970;22;20015;-75
2022/08/29 02:13:49;;;;;;;0.43;0.38;;;13.90;70.30;;;;;;6274953;22;20086;-74
2022/08/29 02:16:16;;;;;;;0.20;0.20;;;13.90;70.50;;;;;;6275136;22;20000;-74
2022/08/29 02:18:42;;;;;;;0.38;0.30;;;13.90;70.50;;;;;;6275537;22;20416;-74
2022/08/29 02:21:11;;;;;;;0.43;0.38;;;13.80;70.50;;;;;;6275324;22;20366;-74
2022/08/29 02:23:39;;;;;;;0.40;0.40;;;13.90;70.60;;;;;;6275698;22;20082;-74
2022/08/29 02:26:05;;;;;;;0.32;0.28;;;13.80;70.60;;;;;;6249160;22;20007;-74
2022/08/29 02:28:32;;;;;;;0.30;0.30;;;13.80;70.70;;;;;;6275681;22;20090;-74
2022/08/29 02:30:59;;;;;;;0.38;0.22;;;13.80;70.80;;;;;;6275280;22;20007;-74
2022/08/29 02:33:25;;;;;;;0.20;0.20;;;13.80;70.80;;;;;;6248639;22;20367;-74
2022/08/29 02:35:52;;;;;;;0.25;0.25;;;13.80;70.90;;;;;;6276143;22;20004;-74
2022/08/29 02:38:18;;;;;;;0.30;0.30;;;13.70;70.80;;;;;;6275627;22;20037;-74
2022/08/29 02:40:46;;;;;;;1.15;0.40;;;13.70;70.90;;;;;;6245030;22;20335;-74
2022/08/29 02:43:12;;;;;;;0.20;0.20;;;13.70;71.00;;;;;;6248446;22;20047;-74
2022/08/29 02:45:40;;;;;;;0.38;0.30;;;13.70;71.10;;;;;;6275894;22;20010;-75
2022/08/29 02:48:06;;;;;;;0.30;0.30;;;13.60;71.10;;;;;;6248546;22;20134;-74
2022/08/29 02:50:34;;;;;;;0.20;0.20;;;13.60;71.40;;;;;;6276343;22;20022;-74
2022/08/29 02:53:00;;;;;;;0.28;0.28;;;13.60;71.30;;;;;;6275430;22;20007;-74
2022/08/29 02:55:26;;;;;;;0.65;0.30;;;13.60;71.30;;;;;;6276131;22;20007;-74
2022/08/29 02:57:53;;;;;;;0.30;0.30;;;13.60;71.40;;;;;;6248515;22;20061;-74
2022/08/29 03:00:24;;;;;;;0.30;0.20;;;13.50;71.40;;;;;;6275656;22;20007;-74
2022/08/29 03:02:50;;;;;;;0.43;0.30;;;13.50;71.40;;;;;;6248531;22;20007;-74
2022/08/29 03:05:19;;;;;;;0.65;0.30;;;13.50;71.50;;;;;;6275855;22;20027;-74
2022/08/29 03:07:46;;;;;;;0.98;0.30;;;13.50;71.50;;;;;;6275584;22;20042;-74
2022/08/29 03:10:12;;;;;;;0.30;0.30;;;13.40;71.50;;;;;;6248346;22;20058;-74
2022/08/29 03:12:38;;;;;;;0.35;0.30;;;13.40;71.60;;;;;;6275071;22;20007;-74
2022/08/29 03:15:05;;;;;;;0.40;0.40;;;13.40;71.60;;;;;;6275079;22;20012;-74
2022/08/29 03:17:31;;;;;;;0.20;0.20;;;13.50;71.70;;;;;;6275675;22;20011;-74
2022/08/29 03:19:57;;;;;;;1.02;0.30;;;13.40;71.70;;;;;;6246174;22;20154;-75
2022/08/29 03:22:25;;;;;;;0.57;0.30;;;13.40;71.80;;;;;;6223242;22;20336;-74
2022/08/29 03:24:51;;;;;;;0.30;0.30;;;13.40;71.80;;;;;;6249704;22;20372;-74
2022/08/29 03:27:17;;;;;;;0.77;0.40;;;13.30;71.80;;;;;;6275526;22;20012;-74
2022/08/29 03:29:43;;;;;;;0.30;0.30;;;13.20;71.90;;;;;;6248565;22;20012;-74
2022/08/29 03:32:09;;;;;;;0.82;0.50;;;13.30;71.90;;;;;;6275394;22;20427;-74
2022/08/29 03:34:35;;;;;;;0.32;0.20;;;13.20;72.00;;;;;;6248137;22;20007;-74
2022/08/29 03:37:00;;;;;;;0.55;0.47;;;13.20;72.10;;;;;;6275588;22;20011;-74
2022/08/29 03:39:26;;;;;;;0.45;0.38;;;13.20;72.20;;;;;;6275512;22;20082;-75
2022/08/29 03:41:52;;;;;;;0.77;0.40;;;13.10;72.80;;;;;;6232497;22;20011;-74
2022/08/29 03:44:18;;;;;;;0.30;0.30;;;13.20;72.30;;;;;;6275416;22;20022;-74
2022/08/29 03:46:43;;;;;;;0.15;0.15;;;13.10;72.30;;;;;;6248375;22;20344;-74
2022/08/29 03:49:10;;;;;;;0.30;0.30;;;13.10;72.30;;;;;;6275358;22;20011;-74
2022/08/29 03:51:38;;;;;;;0.20;0.20;;;13.20;72.30;;;;;;6247630;22;20015;-74
2022/08/29 03:54:05;;;;;;;0.75;0.30;;;13.10;72.30;;;;;;6248529;22;20500;-74
2022/08/29 03:56:31;;;;;;;0.60;0.28;;;13.10;72.30;;;;;;6248005;22;20069;-74
2022/08/29 03:58:57;;;;;;;0.30;0.30;;;13.10;72.40;;;;;;6275826;22;20074;-74
2022/08/29 04:01:27;;;;;;;0.75;0.40;;;13.00;72.30;;;;;;6275025;22;20008;-74
2022/08/29 04:03:54;;;;;;;0.20;0.20;;;13.10;72.40;;;;;;6275059;22;20049;-74
2022/08/29 04:06:21;;;;;;;0.30;0.30;;;13.20;72.50;;;;;;6248926;22;20015;-74
2022/08/29 04:08:48;;;;;;;0.30;0.30;;;13.00;72.40;;;;;;6275181;22;20011;-74
2022/08/29 04:11:15;;;;;;;0.50;0.40;;;13.10;72.40;;;;;;6275316;22;20420;-74
2022/08/29 04:13:41;;;;;;;0.30;0.30;;;13.10;72.40;;;;;;6220988;22;20012;-74
2022/08/29 04:16:10;;;;;;;0.73;0.45;;;13.20;72.40;;;;;;6275687;22;20012;-74
2022/08/29 04:18:36;;;;;;;0.93;0.50;;;13.20;72.40;;;;;;6275559;22;20020;-74
2022/08/29 04:21:03;;;;;;;0.47;0.40;;;13.20;72.40;;;;;;6274886;22;20091;-75
2022/08/29 04:23:30;;;;;;;1.13;0.30;;;13.20;72.30;;;;;;6275815;22;20083;-74
2022/08/29 04:25:55;;;;;;;0.50;0.30;;;13.30;72.40;;;;;;6274920;22;20076;-74
2022/08/29 04:28:22;;;;;;;0.20;0.20;;;13.30;72.40;;;;;;6248022;22;20091;-75
2022/08/29 04:30:51;;;;;;;0.30;0.30;;;13.30;72.30;;;;;;6275677;22;20098;-75
2022/08/29 04:33:18;;;;;;;0.85;0.30;;;13.40;72.30;;;;;;6248797;22;20061;-74
2022/08/29 04:35:44;;;;;;;0.20;0.20;;;13.50;72.20;;;;;;6274927;22;20432;-74
2022/08/29 04:38:10;;;;;;;0.20;0.20;;;13.50;72.00;;;;;;6275030;22;20010;-74
2022/08/29 04:40:38;;;;;;;0.30;0.30;;;13.50;72.10;;;;;;6222208;22;20432;-74
2022/08/29 04:43:04;;;;;;;0.63;0.40;;;13.50;72.70;;;;;;6275098;22;20336;-75
2022/08/29 04:45:32;;;;;;;0.30;0.30;;;13.50;72.00;;;;;;6248262;22;20000;-74
2022/08/29 04:47:57;;;;;;;0.30;0.30;;;13.60;72.10;;;;;;6275856;22;20082;-74
2022/08/29 04:50:23;;;;;;;0.40;0.40;;;13.60;71.90;;;;;;6275397;22;20093;-74
2022/08/29 04:52:51;;;;;;;0.22;0.22;;;13.70;72.10;;;;;;6248715;22;20105;-74
2022/08/29 04:55:20;;;;;;;0.35;0.35;;;13.70;72.10;;;;;;6275009;22;20011;-74
2022/08/29 04:57:46;;;;;;;0.55;0.47;;;13.70;72.10;;;;;;6275342;22;20011;-74
2022/08/29 05:00:17;;;;;;;0.30;0.30;;;13.80;72.10;;;;;;6274898;22;20340;-74
2022/08/29 05:02:43;;;;;;;0.30;0.30;;;13.80;72.10;;;;;;6274707;22;20014;-74
2022/08/29 05:05:11;;;;;;;0.38;0.30;;;13.80;72.00;;;;;;6246515;22;20011;-74
2022/08/29 05:07:37;;;;;;;0.38;0.38;;;13.80;72.00;;;;;;6275253;22;20020;-74
2022/08/29 05:10:08;;;;;;;1.30;0.47;;;13.90;72.00;;;;;;6275720;22;20007;-74
2022/08/29 05:12:34;;;;;;;0.88;0.50;;;13.90;72.00;;;;;;6275637;22;20007;-74
2022/08/29 05:15:00;;;;;;;0.40;0.40;;;13.90;71.90;;;;;;6275492;22;20367;-75
2022/08/29 05:17:27;;;;;;;0.30;0.30;;;14.00;71.90;;;;;;6247057;22;20344;-74
2022/08/29 05:19:53;;;;;;;0.80;0.38;;;14.00;71.90;;;;;;6274877;22;20011;-74
2022/08/29 05:22:20;;;;;;;0.50;0.50;;;14.10;71.90;;;;;;6274761;22;20089;-75
2022/08/29 05:24:47;;;;;;;0.52;0.52;;;14.10;71.90;;;;;;6248599;22;20008;-74
2022/08/29 05:27:17;;;;;;;0.65;0.50;;;14.10;71.80;;;;;;6247866;22;20012;-74
2022/08/29 05:29:45;;;;;;;0.40;0.40;;;14.20;71.80;;;;;;6275007;22;20016;-74
2022/08/29 05:32:13;;;;;;;1.85;0.57;;;14.20;71.80;;;;;;6223026;22;20046;-74
2022/08/29 05:34:41;;;;;;;0.40;0.40;;;14.20;71.80;;;;;;6274895;22;20034;-75
2022/08/29 05:37:11;;;;;;;0.68;0.30;;;14.30;71.80;;;;;;6275841;22;20376;-74
2022/08/29 05:39:39;;;;;;;0.82;0.40;;;14.30;71.80;;;;;;6275354;22;20008;-74
2022/08/29 05:42:06;;;;;;;0.77;0.50;;;14.30;71.70;;;;;;6268371;22;20012;-74
2022/08/29 05:44:32;;;;;;;1.00;0.55;;;14.40;71.70;;;;;;6247494;22;20344;-74
2022/08/29 05:46:59;;;;;;;0.55;0.50;;;14.40;71.70;;;;;;6247477;22;20022;-74
2022/08/29 05:49:26;;;;;;;1.33;0.55;;;14.40;71.70;;;;;;6274580;22;20094;-74
2022/08/29 05:51:54;;;;;;;1.00;0.50;;;14.60;71.70;;;;;;6246961;22;20047;-74
2022/08/29 05:54:20;;;;;;;0.30;0.30;;;14.60;71.60;;;;;;6219463;22;20448;-74
2022/08/29 05:56:46;;;;;;;1.33;0.50;;;14.70;71.50;;;;;;6274913;22;20050;-74
2022/08/29 05:59:12;;;;;;;0.63;0.50;;;14.80;71.30;;;;;;6246152;22;20368;-74
2022/08/29 06:01:39;;;;;;;0.60;0.55;;;14.80;71.10;;;;;;6275117;22;20007;-74
2022/08/29 06:04:05;;;;;;;1.35;0.70;;;14.90;71.00;;;;;;6275554;22;20004;-74
2022/08/29 06:06:31;;;;;;;0.70;0.50;;;14.90;70.90;;;;;;6275283;22;20387;-74
2022/08/29 06:08:58;;;;;;;1.20;0.50;;;15.00;70.90;;;;;;6245630;22;20042;-74
2022/08/29 06:11:27;;;;;;;0.45;0.43;;;15.00;70.80;;;;;;6245039;22;20051;-74
2022/08/29 06:13:53;;;;;;;0.90;0.60;;;15.10;70.60;;;;;;6248664;22;20435;-74
2022/08/29 06:16:22;;;;;;;1.48;0.63;;;15.20;70.50;;;;;;6274491;22;20058;-74
2022/08/29 06:18:47;;;;;;;1.40;0.52;;;15.20;70.50;;;;;;6247395;22;21300;-74
2022/08/29 06:21:14;;;;;;;0.98;0.63;;;15.30;70.40;;;;;;6274126;22;20035;-75
2022/08/29 06:23:41;;;;;;;0.70;0.60;;;15.30;70.30;;;;;;6274562;22;20008;-75
2022/08/29 06:26:08;;;;;;;0.75;0.57;;;15.40;70.20;;;;;;6247435;22;20006;-74
2022/08/29 06:28:36;;;;;;;0.60;0.60;;;15.50;70.00;;;;;;6274359;22;20018;-74
2022/08/29 06:31:16;;;;;;;1.05;0.60;;;15.60;69.90;;;;;;6274911;22;20066;-75
2022/08/29 06:33:42;;;;;;;1.00;0.60;;;15.70;69.70;;;;;;6249329;22;20012;-74
2022/08/29 06:36:09;;;;;;;1.05;0.60;;;15.80;69.60;;;;;;6273994;22;20015;-74
2022/08/29 06:38:35;;;;;;;0.85;0.70;;;15.80;69.40;;;;;;6274057;22;20011;-74
2022/08/29 06:41:05;;;;;;;0.50;0.50;;;15.90;69.20;;;;;;6247304;22;20007;-75
2022/08/29 06:43:31;;;;;;;0.50;0.50;;;15.90;69.10;;;;;;6245397;22;20436;-75
2022/08/29 06:45:56;;;;;;;1.30;0.65;;;16.10;69.10;;;;;;6245930;22;20011;-74
2022/08/29 06:48:22;;;;;;;0.65;0.52;;;16.10;68.90;;;;;;6247050;22;20011;-75
2022/08/29 06:50:48;;;;;;;1.00;0.60;;;16.20;68.80;;;;;;6274968;22;20004;-75
2022/08/29 06:53:13;;;;;;;1.00;0.50;;;16.30;68.70;;;;;;6274275;22;20014;-75
2022/08/29 06:55:39;;;;;;;0.63;0.60;;;16.40;68.70;;;;;;6247251;22;20012;-74
2022/08/29 06:58:05;;;;;;;0.70;0.60;;;16.40;68.50;;;;;;6274200;22;20363;-75
2022/08/29 07:00:31;;;;;;;0.98;0.55;;;16.50;68.50;;;;;;6273842;22;20339;-75
2022/08/29 07:02:57;;;;;;;0.55;0.40;;;16.50;68.30;;;;;;6274985;22;20041;-74
2022/08/29 07:05:23;;;;;;;0.75;0.50;;;16.60;68.30;;;;;;6248428;22;20004;-75
2022/08/29 07:07:50;;;;;;;0.80;0.55;;;16.70;68.20;;;;;;6276135;22;20065;-75
2022/08/29 07:10:17;;;;;;;0.50;0.47;;;16.70;68.10;;;;;;6248791;22;20015;-75
2022/08/29 07:12:43;;;;;;;0.40;0.40;;;16.80;68.10;;;;;;6275601;22;20008;-74
2022/08/29 07:15:10;;;;;;;0.77;0.47;;;16.90;68.10;;;;;;6275388;22;20061;-74
2022/08/29 07:17:36;;;;;;;0.63;0.50;;;16.90;67.90;;;;;;6248408;22;20011;-75
2022/08/29 07:20:02;;;;;;;0.40;0.40;;;17.00;67.90;;;;;;6275769;22;20077;-75
2022/08/29 07:22:28;;;;;;;0.52;0.43;;;17.00;67.70;;;;;;6275702;22;20069;-75
2022/08/29 07:24:55;;;;;;;1.17;0.70;;;17.30;67.70;;;;;;6275576;22;20011;-74
2022/08/29 07:27:21;;;;;;;0.50;0.50;;;17.30;67.50;;;;;;6275339;22;20094;-75
2022/08/29 07:29:47;;;;;;;1.13;0.70;;;17.40;67.30;;;;;;6275910;22;20474;-75
2022/08/29 07:32:13;;;;;;;1.10;0.70;;;17.60;67.20;;;;;;6275789;22;20004;-75
2022/08/29 07:34:39;;;;;;;0.52;0.52;;;17.60;67.00;;;;;;6248360;22;20065;-74
2022/08/29 07:37:05;;;;;;;1.20;0.60;;;17.70;66.70;;;;;;6276198;22;20004;-74
2022/08/29 07:39:31;;;;;;;0.70;0.50;;;17.80;66.60;;;;;;6275813;22;20343;-74
2022/08/29 07:41:57;;;;;;;0.63;0.57;;;17.90;66.60;;;;;;6275286;22;20091;-75
2022/08/29 07:44:24;;;;;;;1.75;0.80;;;17.90;66.60;;;;;;6275903;22;20432;-75
2022/08/29 07:46:59;;;;;;;0.60;0.60;;;18.00;66.60;;;;;;6275904;22;20037;-74
2022/08/29 07:49:27;;;;;;;0.73;0.50;;;18.10;66.50;;;;;;6275560;22;20004;-75
2022/08/29 07:51:54;;;;;;;1.25;0.52;;;18.10;66.40;;;;;;6274934;22;20042;-75
2022/08/29 07:54:21;;;;;;;0.63;0.50;;;18.20;66.20;;;;;;6275463;22;20378;-75
2022/08/29 07:56:50;;;;;;;0.85;0.60;;;18.20;66.00;;;;;;6275442;22;20015;-74
2022/08/29 07:59:18;;;;;;;0.50;0.50;;;18.30;65.90;;;;;;6275087;22;20149;-75
2022/08/29 08:01:43;;;;;;;0.82;0.65;;;18.50;65.80;;;;;;6275505;22;20007;-74
2022/08/29 08:04:10;;;;;;;0.73;0.50;;;18.60;65.80;;;;;;6248245;22;20015;-74
2022/08/29 08:06:37;;;;;;;0.50;0.43;;;18.60;65.60;;;;;;6275637;22;20061;-74
2022/08/29 08:09:04;;;;;;;0.75;0.65;;;18.70;65.70;;;;;;6275484;22;20011;-74
2022/08/29 08:11:30;;;;;;;0.85;0.60;;;18.70;65.60;;;;;;6248525;22;20495;-74
2022/08/29 08:13:57;;;;;;;1.50;0.82;;;18.80;65.60;;;;;;6275276;22;20031;-74
2022/08/29 08:16:25;;;;;;;0.93;0.77;;;18.90;65.50;;;;;;6275846;22;20108;-75
2022/08/29 08:18:51;;;;;;;0.60;0.52;;;18.90;65.30;;;;;;6275621;22;20014;-75
2022/08/29 08:21:17;;;;;;;0.63;0.52;;;19.00;65.30;;;;;;6275420;22;20008;-74
2022/08/29 08:23:43;;;;;;;1.00;0.70;;;19.10;65.20;;;;;;6249043;22;20030;-75
2022/08/29 08:26:12;;;;;;;1.48;0.68;;;19.20;65.20;;;;;;6248429;22;20012;-74
2022/08/29 08:28:39;;;;;;;3.78;0.80;;;19.50;65.00;;;;;;6248749;22;20054;-74
2022/08/29 08:31:06;;;;;;;0.85;0.55;;;19.40;64.60;;;;;;6248437;22;20004;-74
2022/08/29 08:33:33;;;;;;;0.60;0.60;;;19.60;64.60;;;;;;6275313;22;20440;-74
2022/08/29 08:35:59;;;;;;;0.73;0.60;;;19.70;64.50;;;;;;6248358;22;20004;-75
2022/08/29 08:38:25;;;;;;;1.55;0.77;;;19.70;64.30;;;;;;6275425;22;20012;-74
2022/08/29 08:41:10;;;;;;;1.38;0.80;;;19.80;64.30;;;;;;6248384;22;20003;-74
2022/08/29 08:43:52;;;;;;;0.52;0.43;;;19.70;64.40;;;;;;6252098;22;20012;-75
2022/08/29 08:46:39;;;;;;;1.23;0.60;;;19.70;64.50;;;;;;6275224;22;20515;-74
2022/08/29 08:49:16;;;;;;;0.75;0.60;;;19.70;64.50;;;;;;6247986;22;20090;-74
2022/08/29 08:51:48;;;;;;;1.15;0.57;;;19.90;64.30;;;;;;6275503;22;20018;-74
2022/08/29 08:54:20;;;;;;;1.05;0.70;;;19.90;64.20;;;;;;6275669;22;20003;-74
2022/08/29 08:56:53;;;;;;;0.77;0.52;;;19.90;64.10;;;;;;6248064;22;20431;-74
2022/08/29 08:59:28;;;;;;;0.75;0.60;;;20.10;64.30;;;;;;6248390;22;20082;-74
2022/08/29 09:02:00;;;;;;;0.60;0.60;;;20.00;64.10;;;;;;6275063;22;20012;-75
2022/08/29 09:04:52;;;;;;;0.75;0.40;;;20.10;63.90;;;;;;6275208;22;20004;-74
2022/08/29 09:07:56;;;;;;;0.68;0.68;;;20.30;63.50;;;;;;6275732;22;20008;-75
2022/08/29 09:10:39;;;;;;;1.00;0.57;;;20.40;63.20;;;;;;6274655;22;20004;-74
2022/08/29 09:13:34;;;;;;;0.75;0.52;;;20.50;62.90;;;;;;6274821;22;20294;-75
2022/08/29 09:16:05;;;;;;;0.82;0.47;;;20.60;62.90;;;;;;6247141;22;20015;-74
2022/08/29 09:18:36;;;;;;;1.27;0.68;;;20.60;62.90;;;;;;6223422;22;20433;-74
2022/08/29 09:21:11;;;;;;;0.50;0.45;;;20.70;62.90;;;;;;6275554;22;20015;-74
2022/08/29 09:23:48;;;;;;;0.73;0.57;;;20.70;62.70;;;;;;6275106;22;20058;-74
2022/08/29 09:26:18;;;;;;;0.60;0.60;;;20.80;62.60;;;;;;6248591;22;20011;-74
2022/08/29 09:28:44;;;;;;;1.52;0.77;;;20.90;62.50;;;;;;6275236;22;20054;-75
2022/08/29 09:31:26;;;;;;;0.60;0.60;;;21.00;62.30;;;;;;6248322;22;20008;-74
2022/08/29 09:33:59;;;;;;;0.70;0.70;;;21.10;62.00;;;;;;6275060;22;20146;-74
2022/08/29 09:36:47;;;;;;;0.50;0.50;;;21.20;61.90;;;;;;6248521;22;20004;-74
2022/08/29 09:39:32;;;;;;;1.00;0.70;;;21.30;61.60;;;;;;6269569;22;20422;-75
2022/08/29 09:42:18;;;;;;;2.60;0.63;;;21.50;61.40;;;;;;6274657;22;20011;-74
2022/08/29 09:44:55;;;;;;;0.90;0.70;;;21.50;61.20;;;;;;6249054;22;20007;-74
2022/08/29 09:47:26;;;;;;;0.85;0.68;;;21.40;61.20;;;;;;6248519;22;20448;-74
2022/08/29 09:50:07;;;;;;;0.65;0.60;;;21.40;61.60;;;;;;6275334;22;20057;-74
2022/08/29 09:52:34;;;;;;;0.60;0.60;;;21.30;61.60;;;;;;6275165;22;20016;-74
2022/08/29 09:55:19;;;;;;;0.85;0.65;;;21.30;61.70;;;;;;6222275;22;20003;-74
2022/08/29 09:57:51;;;;;;;0.60;0.60;;;21.30;61.70;;;;;;6245053;22;20011;-74
2022/08/29 10:00:24;;;;;;;1.90;0.75;;;21.20;61.90;;;;;;6275035;22;20015;-74
2022/08/29 10:02:57;;;;;;;0.82;0.63;;;21.20;62.60;;;;;;6274378;22;20015;-74
2022/08/29 10:05:40;;;;;;;1.02;0.60;;;21.20;62.10;;;;;;6274511;22;20340;-74
2022/08/29 10:08:36;;;;;;;0.40;0.40;;;21.10;62.30;;;;;;6274519;22;20003;-74
2022/08/29 10:11:20;;;;;;;1.15;0.60;;;21.00;63.20;;;;;;6275135;22;20018;-74
2022/08/29 10:13:57;;;;;;;0.80;0.60;;;20.90;62.70;;;;;;6247622;22;20034;-74
2022/08/29 10:16:53;;;;;;;0.35;0.35;;;20.90;62.80;;;;;;6274868;22;20494;-75
2022/08/29 10:19:26;;;;;;;0.63;0.40;;;21.00;62.80;;;;;;6247872;22;20007;-74
2022/08/29 10:22:14;;;;;;;0.60;0.60;;;21.00;62.70;;;;;;6246061;22;20013;-74
2022/08/29 10:25:05;;;;;;;2.15;0.70;;;21.00;62.70;;;;;;6247281;22;20061;-74
2022/08/29 10:27:44;;;;;;;0.75;0.50;;;20.90;62.70;;;;;;6274474;22;20058;-74
2022/08/29 10:30:16;;;;;;;1.00;0.43;;;21.00;62.60;;;;;;6247465;22;20014;-74
2022/08/29 10:33:06;;;;;;;1.08;0.60;;;21.00;62.50;;;;;;6279266;22;20015;-74
2022/08/29 10:35:48;;;;;;;0.65;0.50;;;21.10;62.30;;;;;;6247422;22;20008;-75
2022/08/29 10:38:37;;;;;;;0.43;0.43;;;21.40;62.00;;;;;;6275322;22;19996;-74
2022/08/29 10:41:23;;;;;;;0.85;0.65;;;21.50;61.60;;;;;;6275729;22;20432;-74
2022/08/29 10:44:07;;;;;;;1.00;0.70;;;21.60;61.20;;;;;;6276555;22;20011;-74
2022/08/29 10:46:47;;;;;;;0.90;0.50;;;21.70;61.10;;;;;;6226553;22;20015;-74
2022/08/29 10:49:34;;;;;;;0.68;0.40;;;21.70;61.10;;;;;;6248497;22;20458;-74
2022/08/29 10:52:32;;;;;;;0.50;0.50;;;21.70;61.20;;;;;;6275730;22;20435;-74
2022/08/29 10:55:34;;;;;;;0.30;0.30;;;21.70;61.20;;;;;;6275305;22;20016;-74
2022/08/29 10:58:06;;;;;;;0.43;0.30;;;21.60;61.90;;;;;;6248888;22;20020;-75
2022/08/29 11:00:42;;;;;;;0.55;0.50;;;21.70;61.40;;;;;;6275428;22;20015;-74
2022/08/29 11:03:32;;;;;;;0.73;0.57;;;21.60;61.40;;;;;;6249727;22;20014;-74
2022/08/29 11:06:05;;;;;;;0.40;0.40;;;21.60;61.40;;;;;;6248623;22;20451;-74
2022/08/29 11:08:38;;;;;;;0.68;0.50;;;21.60;61.40;;;;;;6275936;22;20008;-75
2022/08/29 11:11:04;;;;;;;0.95;0.70;;;21.70;61.50;;;;;;6249636;22;20332;-74
2022/08/29 11:13:39;;;;;;;0.60;0.50;;;21.70;61.50;;;;;;6249127;22;19996;-74
2022/08/29 11:16:13;;;;;;;0.80;0.55;;;21.70;61.50;;;;;;6248216;22;20057;-74
2022/08/29 11:18:47;;;;;;;0.40;0.40;;;21.80;61.30;;;;;;6275604;22;20003;-74
2022/08/29 11:21:33;;;;;;;0.52;0.43;;;22.00;61.00;;;;;;6248558;22;20006;-74
2022/08/29 11:24:02;;;;;;;0.35;0.35;;;22.10;60.50;;;;;;6275679;22;20369;-73
2022/08/29 11:27:00;;;;;;;0.45;0.40;;;22.30;60.50;;;;;;6271284;22;20049;-74
2022/08/29 11:29:40;;;;;;;0.60;0.50;;;22.40;60.10;;;;;;6275359;22;20046;-74
2022/08/29 11:32:25;;;;;;;0.73;0.47;;;22.50;60.00;;;;;;6275809;22;20035;-74
2022/08/29 11:35:19;;;;;;;0.77;0.50;;;22.60;59.80;;;;;;6275686;22;20301;-74
2022/08/29 11:38:24;;;;;;;1.30;0.50;;;22.80;59.50;;;;;;6275573;22;20015;-74
2022/08/29 11:41:15;;;;;;;0.52;0.50;;;22.90;59.40;;;;;;6231606;22;20035;-74
2022/08/29 11:43:43;;;;;;;;;;;23.00;59.30;;;;;;6275150;22;20317;-73
2022/08/29 11:46:12;;;;;;;0.50;0.50;;;23.00;59.00;;;;;;6275332;22;19907;-74
2022/08/29 11:48:45;;;;;;;0.93;0.40;;;23.00;59.20;;;;;;6275538;22;20015;-74
2022/08/29 11:51:33;;;;;;;0.63;0.63;;;22.90;59.50;;;;;;6275562;22;20010;-74
2022/08/29 11:54:39;;;;;;;1.48;0.60;;;23.10;59.20;;;;;;6275842;22;20014;-74
2022/08/29 11:57:44;;;;;;;0.60;0.60;;;23.20;58.90;;;;;;6252497;22;20004;-74
2022/08/29 12:00:33;;;;;;;0.40;0.40;;;23.30;58.90;;;;;;6257360;22;20328;-74
2022/08/29 12:02:58;;;;;;;0.65;0.55;;;23.20;58.80;;;;;;6245726;22;20039;-74
2022/08/29 12:05:49;;;;;;;0.60;0.40;;;23.10;59.10;;;;;;6248240;22;20420;-74
2022/08/29 12:08:30;;;;;;;0.85;0.50;;;23.30;59.00;;;;;;6275466;22;19999;-73
2022/08/29 12:10:57;;;;;;;1.23;0.70;;;23.50;58.80;;;;;;6276056;22;19996;-73
2022/08/29 12:13:57;;;;;;;0.52;0.52;;;23.60;58.40;;;;;;6248316;22;20065;-75
2022/08/29 12:16:42;;;;;;;0.50;0.50;;;23.60;58.20;;;;;;6275299;22;20019;-75
2022/08/29 12:19:08;;;;;;;0.60;0.60;;;23.60;58.30;;;;;;6275600;22;20012;-74
2022/08/29 12:21:45;;;;;;;0.40;0.40;;;23.60;58.50;;;;;;6275659;22;20095;-74
2022/08/29 12:24:31;;;;;;;1.05;0.68;;;23.60;58.40;;;;;;6275405;22;20008;-74
2022/08/29 12:26:57;;;;;;;1.17;0.63;;;23.60;58.20;;;;;;6275237;22;20012;-74
2022/08/29 12:29:29;;;;;;;1.23;0.70;;;23.60;58.40;;;;;;6248344;22;20007;-74
2022/08/29 12:32:28;;;;;;;0.77;0.65;;;23.30;58.40;;;;;;6248791;22;20455;-74
2022/08/29 12:35:19;;;;;;;0.40;0.40;;;23.40;58.40;;;;;;6274980;22;20454;-74
2022/08/29 12:37:59;;;;;;;;;;;23.40;58.30;;;;;;6275621;22;20007;-74
2022/08/29 12:40:46;;;;;;;0.68;0.50;;;23.50;58.40;;;;;;6275194;22;19957;-74
2022/08/29 12:43:32;;;;;;;0.68;0.47;;;23.60;58.00;;;;;;6248145;22;20008;-74
2022/08/29 12:45:59;;;;;;;0.40;0.40;;;23.70;57.70;;;;;;6275531;22;20029;-74
2022/08/29 12:48:34;;;;;;;0.65;0.38;;;23.90;57.50;;;;;;6275236;22;20016;-75
2022/08/29 12:51:01;;;;;;;0.82;0.50;;;24.00;57.20;;;;;;6275026;22;20003;-75
2022/08/29 12:53:32;;;;;;;0.73;0.50;;;24.00;57.10;;;;;;6275921;22;20003;-75
2022/08/29 12:56:03;;;;;;;0.65;0.60;;;24.00;57.20;;;;;;6275845;22;20000;-74
2022/08/29 12:58:35;;;;;;;0.98;0.50;;;24.00;57.30;;;;;;6275290;22;20054;-74
2022/08/29 13:01:02;;;;;;;0.55;0.52;;;23.80;57.40;;;;;;6274933;22;20008;-74
2022/08/29 13:03:28;;;;;;;0.82;0.70;;;23.70;57.60;;;;;;6275026;22;20008;-74
2022/08/29 13:06:07;;;;;;;1.10;0.50;;;23.50;57.70;;;;;;6275712;22;20026;-74
2022/08/29 13:08:36;;;;;;;0.55;0.50;;;23.40;58.00;;;;;;6248281;22;20458;-74
2022/08/29 13:11:06;;;;;;;0.85;0.52;;;23.30;58.10;;;;;;6274767;22;20003;-74
2022/08/29 13:13:33;;;;;;;0.90;0.80;;;23.30;58.00;;;;;;6275005;22;20010;-74